createdAt,value
2022-09-26T00:02:57.710Z,1.60
2022-09-26T00:06:25.591Z,1.60
2022-09-26T00:09:49.586Z,1.90
2022-09-26T00:13:13.589Z,1.70
2022-09-26T00:16:37.675Z,1.63
2022-09-26T00:20:02.603Z,2.05
2022-09-26T00:23:27.631Z,1.90
2022-09-26T00:26:51.619Z,2.00
2022-09-26T00:30:14.568Z,1.80
2022-09-26T00:33:38.624Z,2.00
2022-09-26T00:36:56.659Z,2.13
2022-09-26T00:40:15.614Z,2.22
2022-09-26T00:43:48.684Z,2.10
2022-09-26T00:47:12.689Z,2.15
2022-09-26T00:50:39.577Z,2.10
2022-09-26T00:54:05.624Z,2.35
2022-09-26T00:57:34.698Z,2.20
2022-09-26T01:01:00.813Z,2.10
2022-09-26T01:04:23.686Z,2.50
2022-09-26T01:07:49.693Z,3.05
2022-09-26T01:11:17.177Z,2.70
2022-09-26T01:14:41.626Z,2.47
2022-09-26T01:18:05.680Z,2.70
2022-09-26T01:22:12.697Z,2.60
2022-09-26T01:26:12.689Z,2.65
2022-09-26T01:29:46.663Z,2.78
2022-09-26T01:33:48.712Z,2.80
2022-09-26T01:37:31.204Z,2.95
2022-09-26T01:41:11.713Z,3.33
2022-09-26T01:44:56.628Z,3.60
2022-09-26T01:48:28.674Z,2.90
2022-09-26T01:52:12.714Z,3.35
2022-09-26T01:55:56.698Z,3.38
2022-09-26T01:59:59.707Z,3.28
2022-09-26T02:03:30.731Z,3.15
2022-09-26T02:07:06.685Z,2.90
2022-09-26T02:11:00.675Z,2.63
2022-09-26T02:14:37.738Z,2.90
2022-09-26T02:18:10.687Z,2.30
2022-09-26T02:21:38.627Z,2.28
2022-09-26T02:25:02.701Z,1.92
2022-09-26T02:28:29.661Z,2.25
2022-09-26T02:32:07.713Z,2.20
2022-09-26T02:35:43.719Z,2.22
2022-09-26T02:39:01.219Z,2.67
2022-09-26T02:43:02.684Z,2.10
2022-09-26T02:46:32.674Z,2.10
2022-09-26T02:50:27.669Z,2.15
2022-09-26T02:54:03.685Z,2.17
2022-09-26T02:57:47.637Z,1.73
2022-09-26T03:01:54.712Z,1.80
2022-09-26T03:05:26.701Z,2.10
2022-09-26T03:08:55.677Z,1.70
2022-09-26T03:12:21.718Z,1.67
2022-09-26T03:15:48.683Z,2.10
2022-09-26T03:19:51.697Z,2.35
2022-09-26T03:23:15.659Z,1.90
2022-09-26T03:26:41.745Z,2.00
2022-09-26T03:30:07.706Z,2.00
2022-09-26T03:33:39.679Z,2.00
2022-09-26T03:37:03.675Z,2.00
2022-09-26T03:40:23.348Z,2.20
2022-09-26T03:44:12.868Z,1.90
2022-09-26T03:47:59.667Z,2.25
2022-09-26T03:51:28.818Z,1.77
2022-09-26T03:54:52.718Z,1.63
2022-09-26T03:58:17.652Z,1.80
2022-09-26T04:01:41.684Z,1.95
2022-09-26T04:05:05.655Z,1.83
2022-09-26T04:08:29.660Z,1.88
2022-09-26T04:11:54.710Z,3.88
2022-09-26T04:15:18.706Z,2.17
2022-09-26T04:18:54.709Z,3.45
2022-09-26T04:22:18.797Z,12.38
2022-09-26T04:25:43.650Z,17.92
2022-09-26T04:29:10.806Z,21.98
2022-09-26T04:32:57.647Z,3.78
2022-09-26T04:36:26.706Z,2.97
2022-09-26T04:39:51.683Z,2.90
2022-09-26T04:43:10.294Z,1.80
2022-09-26T04:46:36.706Z,1.70
2022-09-26T04:50:00.662Z,2.70
2022-09-26T04:53:27.701Z,1.67
2022-09-26T04:56:59.689Z,2.10
2022-09-26T05:00:26.651Z,3.20
2022-09-26T05:03:54.719Z,2.60
2022-09-26T05:07:19.692Z,3.75
2022-09-26T05:10:43.718Z,1.67
2022-09-26T05:14:07.669Z,1.73
2022-09-26T05:17:32.708Z,1.92
2022-09-26T05:21:00.655Z,1.60
2022-09-26T05:24:42.719Z,2.00
2022-09-26T05:28:07.704Z,2.50
2022-09-26T05:31:33.811Z,1.83
2022-09-26T05:34:58.706Z,1.73
2022-09-26T05:38:26.741Z,2.20
2022-09-26T05:41:45.316Z,3.20
2022-09-26T05:45:02.794Z,2.05
2022-09-26T05:48:26.694Z,1.90
2022-09-26T05:51:51.831Z,2.30
2022-09-26T05:55:15.730Z,1.75
2022-09-26T05:59:05.747Z,1.63
2022-09-26T06:02:48.721Z,1.83
2022-09-26T06:06:23.687Z,2.33
2022-09-26T06:09:57.725Z,1.73
2022-09-26T06:13:31.669Z,2.05
2022-09-26T06:16:55.765Z,1.85
2022-09-26T06:20:20.719Z,1.90
2022-09-26T06:23:46.770Z,1.88
2022-09-26T06:27:13.764Z,1.98
2022-09-26T06:30:37.703Z,2.30
2022-09-26T06:34:30.770Z,4.85
2022-09-26T06:38:12.804Z,4.28
2022-09-26T06:41:36.723Z,4.93
2022-09-26T06:45:24.756Z,13.63
2022-09-26T06:49:14.905Z,2.45
2022-09-26T06:53:02.732Z,2.20
2022-09-26T06:56:31.737Z,2.33
2022-09-26T06:59:55.759Z,2.22
2022-09-26T07:03:40.574Z,2.20
2022-09-26T07:07:18.762Z,2.30
2022-09-26T07:10:45.777Z,2.00
2022-09-26T07:14:15.730Z,2.10
2022-09-26T07:17:44.766Z,2.38
2022-09-26T07:21:20.734Z,2.30
2022-09-26T07:25:10.804Z,2.45
2022-09-26T07:28:35.766Z,2.75
2022-09-26T07:31:59.824Z,2.20
2022-09-26T07:35:37.790Z,2.65
2022-09-26T07:39:05.847Z,2.47
2022-09-26T07:42:24.292Z,2.28
2022-09-26T07:46:06.862Z,2.60
2022-09-26T07:49:53.747Z,2.30
2022-09-26T07:53:35.802Z,2.20
2022-09-26T07:57:17.818Z,2.07
2022-09-26T08:00:58.763Z,2.28
2022-09-26T08:04:45.732Z,2.00
2022-09-26T08:08:12.850Z,2.38
2022-09-26T08:11:49.821Z,2.20
2022-09-26T08:15:32.737Z,2.50
2022-09-26T08:18:59.823Z,2.30
2022-09-26T08:22:24.719Z,2.70
2022-09-26T08:25:49.795Z,2.58
2022-09-26T08:29:23.850Z,2.17
2022-09-26T08:32:48.739Z,2.50
2022-09-26T08:36:27.765Z,2.60
2022-09-26T08:40:05.752Z,2.90
2022-09-26T08:48:39.747Z,2.60
2022-09-26T08:52:08.787Z,2.92
2022-09-26T08:55:40.735Z,3.00
2022-09-26T08:59:07.794Z,2.97
2022-09-26T09:02:54.789Z,3.28
2022-09-26T09:06:27.818Z,3.00
2022-09-26T09:09:51.801Z,3.08
2022-09-26T09:13:49.918Z,3.10
2022-09-26T09:17:46.806Z,3.30
2022-09-26T09:21:56.836Z,3.60
2022-09-26T09:25:37.823Z,4.03
2022-09-26T09:29:26.796Z,3.28
2022-09-26T09:33:31.851Z,4.10
2022-09-26T09:37:40.783Z,3.03
2022-09-26T09:41:17.839Z,2.70
2022-09-26T09:44:54.774Z,2.53
2022-09-26T09:48:25.787Z,3.10
2022-09-26T09:52:18.836Z,2.65
2022-09-26T09:55:50.829Z,2.83
2022-09-26T09:59:20.804Z,2.47
2022-09-26T10:03:09.974Z,2.50
2022-09-26T10:06:45.485Z,2.47
2022-09-26T10:10:15.815Z,2.30
2022-09-26T10:14:01.849Z,2.42
2022-09-26T10:18:00.837Z,2.30
2022-09-26T10:21:32.818Z,2.28
2022-09-26T10:24:57.852Z,2.60
2022-09-26T10:28:21.865Z,2.50
2022-09-26T10:31:56.929Z,2.83
2022-09-26T10:35:37.986Z,2.95
2022-09-26T10:39:29.842Z,2.30
2022-09-26T10:42:54.893Z,2.70
2022-09-26T10:46:27.838Z,2.58
2022-09-26T10:50:12.874Z,2.65
2022-09-26T10:53:56.793Z,2.33
2022-09-26T10:57:21.863Z,2.30
2022-09-26T11:00:53.849Z,2.60
2022-09-26T11:04:54.846Z,2.50
2022-09-26T11:08:52.815Z,2.30
2022-09-26T11:12:49.870Z,2.88
2022-09-26T11:16:33.681Z,2.50
2022-09-26T11:20:10.851Z,3.15
2022-09-26T11:23:55.826Z,2.50
2022-09-26T11:27:27.839Z,3.10
2022-09-26T11:30:57.898Z,2.58
2022-09-26T11:34:31.824Z,2.42
2022-09-26T11:38:13.827Z,2.80
2022-09-26T11:41:49.868Z,2.55
2022-09-26T11:46:08.931Z,2.40
2022-09-26T11:50:15.814Z,2.15
2022-09-26T11:54:17.906Z,2.40
2022-09-26T11:58:07.808Z,2.33
2022-09-26T12:01:46.905Z,2.92
2022-09-26T12:05:26.628Z,2.15
2022-09-26T12:09:01.865Z,2.30
2022-09-26T12:12:40.626Z,2.63
2022-09-26T12:16:21.959Z,2.25
2022-09-26T12:19:56.900Z,2.40
2022-09-26T12:23:39.815Z,1.73
2022-09-26T12:30:34.867Z,1.50
2022-09-26T12:34:24.863Z,1.65
2022-09-26T12:38:06.825Z,1.42
2022-09-26T12:45:31.878Z,1.98
2022-09-26T12:49:05.880Z,2.10
2022-09-26T12:53:05.876Z,2.00
2022-09-26T12:57:01.443Z,1.80
2022-09-26T13:00:30.928Z,1.75
2022-09-26T13:04:18.873Z,1.70
2022-09-26T13:07:58.911Z,2.00
2022-09-26T13:11:39.865Z,1.70
2022-09-26T13:15:27.892Z,2.20
2022-09-26T13:18:54.843Z,2.20
2022-09-26T13:22:24.904Z,1.80
2022-09-26T13:25:56.899Z,1.83
2022-09-26T13:29:48.907Z,1.70
2022-09-26T13:33:17.046Z,1.70
2022-09-26T13:36:41.888Z,1.77
2022-09-26T13:40:11.052Z,2.42
2022-09-26T13:43:55.955Z,1.85
2022-09-26T13:47:45.918Z,1.98
2022-09-26T13:51:15.901Z,2.00
2022-09-26T13:54:51.889Z,2.00
2022-09-26T13:58:30.079Z,1.98
2022-09-26T14:01:49.898Z,1.90
2022-09-26T14:05:34.869Z,1.98
2022-09-26T14:09:27.911Z,1.77
2022-09-26T14:13:18.863Z,2.00
2022-09-26T14:16:42.985Z,2.00
2022-09-26T14:20:12.943Z,1.83
2022-09-26T14:24:02.924Z,2.95
2022-09-26T14:27:26.943Z,1.88
2022-09-26T14:30:50.997Z,2.00
2022-09-26T14:34:38.874Z,1.42
2022-09-26T14:38:03.902Z,1.98
2022-09-26T14:41:33.879Z,2.40
2022-09-26T14:45:09.961Z,2.00
2022-09-26T14:48:52.956Z,2.03
2022-09-26T14:52:16.934Z,1.77
2022-09-26T14:55:40.961Z,2.00
2022-09-26T14:59:06.954Z,2.33
2022-09-26T15:02:38.999Z,2.40
2022-09-26T15:06:02.950Z,2.03
2022-09-26T15:09:32.916Z,2.10
2022-09-26T15:13:14.916Z,1.88
2022-09-26T15:16:42.908Z,2.25
2022-09-26T15:20:09.927Z,2.05
2022-09-26T15:23:54.936Z,2.00
2022-09-26T15:27:42.702Z,1.70
2022-09-26T15:31:34.061Z,1.58
2022-09-26T15:34:57.965Z,1.67
2022-09-26T15:38:26.931Z,1.70
2022-09-26T15:42:07.951Z,1.40
2022-09-26T15:45:45.971Z,1.60
2022-09-26T15:49:10.952Z,1.70
2022-09-26T15:52:35.929Z,1.88
2022-09-26T15:56:13.606Z,2.10
2022-09-26T15:59:44.931Z,1.65
2022-09-26T16:03:09.101Z,1.80
2022-09-26T16:06:50.957Z,2.10
2022-09-26T16:10:14.900Z,1.90
2022-09-26T16:13:47.989Z,1.73
2022-09-26T16:17:16.913Z,1.92
2022-09-26T16:20:46.088Z,1.80
2022-09-26T16:24:12.987Z,1.75
2022-09-26T16:27:40.136Z,2.30
2022-09-26T16:31:18.066Z,1.85
2022-09-26T16:34:41.007Z,1.63
2022-09-26T16:38:33.936Z,1.67
2022-09-26T16:42:01.812Z,1.95
2022-09-26T16:45:28.999Z,1.90
2022-09-26T16:48:55.999Z,2.30
2022-09-26T16:52:56.942Z,1.92
2022-09-26T16:56:21.949Z,1.88
2022-09-26T16:59:45.949Z,2.60
2022-09-26T17:03:10.062Z,1.70
2022-09-26T17:06:35.983Z,2.10
2022-09-26T17:09:59.965Z,1.90
2022-09-26T17:13:32.989Z,2.58
2022-09-26T17:17:04.001Z,2.10
2022-09-26T17:20:29.991Z,2.00
2022-09-26T17:23:53.997Z,1.95
2022-09-26T17:27:20.982Z,2.10
2022-09-26T17:30:45.177Z,2.80
2022-09-26T17:34:10.060Z,5.72
2022-09-26T17:37:34.967Z,4.30
2022-09-26T17:40:59.080Z,2.65
2022-09-26T17:44:22.991Z,3.13
2022-09-26T17:47:46.976Z,2.90
2022-09-26T17:51:10.980Z,2.35
2022-09-26T17:54:38.014Z,2.47
2022-09-26T17:58:01.990Z,2.83
2022-09-26T18:01:38.060Z,2.33
2022-09-26T18:05:02.006Z,2.22
2022-09-26T18:08:39.977Z,2.15
2022-09-26T18:12:10.989Z,1.90
2022-09-26T18:15:35.013Z,1.70
2022-09-26T18:18:58.455Z,1.65
2022-09-26T18:22:30.992Z,2.20
2022-09-26T18:25:55.013Z,1.83
2022-09-26T18:29:20.959Z,2.00
2022-09-26T18:32:50.066Z,1.80
2022-09-26T18:36:14.009Z,1.88
2022-09-26T18:39:38.986Z,2.00
2022-09-26T18:43:03.043Z,2.15
2022-09-26T18:46:31.021Z,1.75
2022-09-26T18:49:56.025Z,1.70
2022-09-26T18:53:35.024Z,1.75
2022-09-26T18:57:17.976Z,1.98
2022-09-26T19:00:43.045Z,1.60
2022-09-26T19:04:09.184Z,2.40
2022-09-26T19:07:33.012Z,1.85
2022-09-26T19:10:56.148Z,1.92
2022-09-26T19:14:38.022Z,1.90
2022-09-26T19:21:58.012Z,1.60
2022-09-26T19:25:24.016Z,1.52
2022-09-26T19:28:50.045Z,1.60
2022-09-26T19:32:14.045Z,1.80
2022-09-26T19:35:40.044Z,1.50
2022-09-26T19:39:04.063Z,1.80
2022-09-26T19:42:29.013Z,1.60
2022-09-26T19:45:53.124Z,1.80
2022-09-26T19:49:18.013Z,1.48
2022-09-26T19:52:45.046Z,1.50
2022-09-26T19:56:10.002Z,1.33
2022-09-26T19:59:34.066Z,1.55
2022-09-26T20:02:51.729Z,1.60
2022-09-26T20:06:09.075Z,1.88
2022-09-26T20:09:34.005Z,1.70
2022-09-26T20:13:02.066Z,1.70
2022-09-26T20:16:27.095Z,1.70
2022-09-26T20:19:58.909Z,1.50
2022-09-26T20:23:30.044Z,2.42
2022-09-26T20:26:54.061Z,1.42
2022-09-26T20:30:43.184Z,1.73
2022-09-26T20:34:08.200Z,1.60
2022-09-26T20:37:33.049Z,1.80
2022-09-26T20:40:57.120Z,2.10
2022-09-26T20:44:43.088Z,1.67
2022-09-26T20:48:08.071Z,1.42
2022-09-26T20:51:43.035Z,1.80
2022-09-26T20:55:08.028Z,1.90
2022-09-26T20:58:33.049Z,1.75
2022-09-26T21:01:50.717Z,1.60
2022-09-26T21:05:10.042Z,1.60
2022-09-26T21:08:44.059Z,2.10
2022-09-26T21:12:08.092Z,1.52
2022-09-26T21:15:31.065Z,2.38
2022-09-26T21:18:55.085Z,1.50
2022-09-26T21:22:20.080Z,1.60
2022-09-26T21:25:46.119Z,1.55
2022-09-26T21:29:12.095Z,1.70
2022-09-26T21:32:37.037Z,1.77
2022-09-26T21:36:01.067Z,1.65
2022-09-26T21:39:25.044Z,1.50
2022-09-26T21:42:50.114Z,1.42
2022-09-26T21:46:14.079Z,1.88
2022-09-26T21:49:40.054Z,1.73
2022-09-26T21:53:08.076Z,1.65
2022-09-26T21:56:34.065Z,1.50
2022-09-26T21:59:58.075Z,1.60
2022-09-26T22:03:31.051Z,1.58
2022-09-26T22:06:55.087Z,1.60
2022-09-26T22:10:21.055Z,1.50
2022-09-26T22:13:45.052Z,1.55
2022-09-26T22:17:09.183Z,1.38
2022-09-26T22:20:33.058Z,1.80
2022-09-26T22:23:58.150Z,1.50
2022-09-26T22:27:23.094Z,1.30
2022-09-26T22:30:47.145Z,1.50
2022-09-26T22:34:13.179Z,1.70
2022-09-26T22:37:37.110Z,1.08
2022-09-26T22:41:08.102Z,1.60
2022-09-26T22:44:33.112Z,1.55
2022-09-26T22:47:57.136Z,1.30
2022-09-26T22:51:22.095Z,1.20
2022-09-26T22:54:47.091Z,1.60
2022-09-26T22:58:11.066Z,1.30
2022-09-26T23:01:38.143Z,1.63
2022-09-26T23:04:55.692Z,1.50
2022-09-26T23:08:14.136Z,1.33
2022-09-26T23:11:39.115Z,1.40
2022-09-26T23:15:04.136Z,1.38
2022-09-26T23:18:28.164Z,1.35
2022-09-26T23:21:53.091Z,1.23
2022-09-26T23:25:18.128Z,1.65
2022-09-26T23:28:42.134Z,1.20
2022-09-26T23:32:07.069Z,1.20
2022-09-26T23:35:31.087Z,1.20
2022-09-26T23:38:55.150Z,1.45
2022-09-26T23:42:19.069Z,1.38
2022-09-26T23:45:44.183Z,1.10
2022-09-26T23:49:08.110Z,1.40
2022-09-26T23:52:32.159Z,1.20
2022-09-26T23:55:56.144Z,1.65
2022-09-26T23:59:20.132Z,1.25
